KPLR/PLR METAR and TAF weather

Enter ICAO airport designator
Station Type Date Time Source
KPLR METAR 2020/11/27 14:35 UTC NOAA

KPLR 271435Z AUTO 00000KT 10SM CLR 09/09 A3018 RMK A01


Station Type Date Time Source
KPLR Decoded METAR 2020/11/27 14:35 UTC NOAA

Station name not available
Nov 27, 2020 - 09:35 AM EST / 2020.11.27 1435 UTC
Wind: Calm:0
Visibility: 10 mile(s):0
Sky conditions: clear
Temperature: 48 F (9 C)
Dew Point: 48 F (9 C)
Relative Humidity: 100%
Pressure (altimeter): 30.18 in. Hg (1022 hPa)
ob: KPLR 271435Z AUTO 00000KT 10SM CLR 09/09 A3018 RMK A01
cycle: 14

Station Type Date Time Source
KPLR TAF UTC NOAA

Error!

Example: see airport list